createdAt,value
2018-06-01T00:02:24.382Z,19.50
2018-06-01T00:04:52.473Z,19.70
2018-06-01T00:07:19.979Z,19.50
2018-06-01T00:09:47.294Z,19.90
2018-06-01T00:12:14.716Z,20.20
2018-06-01T00:14:42.104Z,20.50
2018-06-01T00:17:10.238Z,20.40
2018-06-01T00:19:44.955Z,19.00
2018-06-01T00:22:14.970Z,18.90
2018-06-01T00:24:43.950Z,18.70
2018-06-01T00:27:14.110Z,19.20
2018-06-01T00:29:45.682Z,19.10
2018-06-01T00:32:12.979Z,19.30
2018-06-01T00:34:45.936Z,19.50
2018-06-01T00:37:15.073Z,19.60
2018-06-01T00:39:45.147Z,18.60
2018-06-01T00:42:13.350Z,18.30
2018-06-01T00:44:40.818Z,18.30
2018-06-01T00:47:08.124Z,18.20
2018-06-01T00:49:36.523Z,18.00
2018-06-01T00:52:04.610Z,17.90
2018-06-01T00:54:45.230Z,17.90
2018-06-01T00:57:12.558Z,17.70
2018-06-01T01:02:08.363Z,17.60
2018-06-01T01:04:36.466Z,17.60
2018-06-01T01:07:03.774Z,17.70
2018-06-01T01:09:31.806Z,18.00
2018-06-01T01:14:27.338Z,18.30
2018-06-01T01:19:23.694Z,18.60
2018-06-01T01:24:19.360Z,18.50
2018-06-01T01:29:14.961Z,18.10
2018-06-01T01:31:43.039Z,17.90
2018-06-01T01:36:39.154Z,17.60
2018-06-01T01:42:13.011Z,17.50
2018-06-01T01:44:40.422Z,17.50
2018-06-01T01:47:07.745Z,17.40
2018-06-01T01:49:35.001Z,17.50
2018-06-01T01:54:30.487Z,17.70
2018-06-01T01:56:57.925Z,17.70
2018-06-01T01:59:25.236Z,17.60
2018-06-01T02:04:21.516Z,17.70
2018-06-01T02:06:48.821Z,17.80
2018-06-01T02:11:44.401Z,17.80
2018-06-01T02:14:12.543Z,17.80
2018-06-01T02:16:40.565Z,17.70
2018-06-01T02:19:08.634Z,17.90
2018-06-01T02:21:35.878Z,17.80
2018-06-01T02:24:03.921Z,17.80
2018-06-01T02:26:31.386Z,17.90
2018-06-01T02:28:59.418Z,18.00
2018-06-01T02:36:23.959Z,19.20
2018-06-01T02:43:47.718Z,19.00
2018-06-01T02:48:43.256Z,19.00
2018-06-01T02:51:10.594Z,19.00
2018-06-01T02:53:38.694Z,19.30
2018-06-01T02:56:06.039Z,19.50
2018-06-01T02:58:34.375Z,19.60
2018-06-01T03:01:02.039Z,19.00
2018-06-01T03:03:30.127Z,19.10
2018-06-01T03:05:58.191Z,18.90
2018-06-01T03:08:26.530Z,18.90
2018-06-01T03:10:54.751Z,18.90
2018-06-01T03:13:22.015Z,19.20
2018-06-01T03:15:49.302Z,19.20
2018-06-01T03:20:45.554Z,18.80
2018-06-01T03:25:42.013Z,19.20
2018-06-01T03:28:09.338Z,19.00
2018-06-01T03:33:05.934Z,19.10
2018-06-01T03:35:33.182Z,19.40
2018-06-01T03:38:01.210Z,18.90
2018-06-01T03:40:28.717Z,18.70
2018-06-01T03:42:56.843Z,18.70
2018-06-01T03:45:24.117Z,18.60
2018-06-01T03:50:19.683Z,19.10
2018-06-01T03:52:47.021Z,18.80
2018-06-01T03:55:14.359Z,19.00
2018-06-01T03:57:42.389Z,19.10
2018-06-01T04:02:38.026Z,19.80
2018-06-01T04:05:05.338Z,19.60
2018-06-01T04:07:32.627Z,19.50
2018-06-01T04:09:59.938Z,19.40
2018-06-01T04:12:27.206Z,19.40
2018-06-01T04:17:23.448Z,19.90
2018-06-01T04:22:19.270Z,19.50
2018-06-01T04:24:46.564Z,19.40
2018-06-01T04:32:11.205Z,18.60
2018-06-01T04:39:35.324Z,18.50
2018-06-01T04:42:03.366Z,18.30
2018-06-01T04:44:31.427Z,18.50
2018-06-01T04:46:58.702Z,18.60
2018-06-01T04:51:54.218Z,18.50
2018-06-01T04:54:21.502Z,18.30
2018-06-01T04:56:48.845Z,18.40
2018-06-01T04:59:16.401Z,18.30
2018-06-01T05:01:44.478Z,18.70
2018-06-01T05:04:12.505Z,18.80
2018-06-01T05:06:39.814Z,19.00
2018-06-01T05:11:35.364Z,19.60
2018-06-01T05:14:02.639Z,19.80
2018-06-01T05:16:30.238Z,19.80
2018-06-01T05:18:58.302Z,19.60
2018-06-01T05:23:53.982Z,19.20
2018-06-01T05:26:21.244Z,19.50
2018-06-01T05:33:45.116Z,19.60
2018-06-01T05:43:37.178Z,19.60
2018-06-01T05:46:04.522Z,19.40
2018-06-01T05:48:32.769Z,19.60
2018-06-01T05:51:00.228Z,20.50
2018-06-01T05:55:55.739Z,20.50
2018-06-01T05:58:23.073Z,20.60
2018-06-01T06:00:51.139Z,20.00
2018-06-01T06:03:18.602Z,20.00
2018-06-01T06:05:45.887Z,20.30
2018-06-01T06:08:13.302Z,20.10
2018-06-01T06:10:41.342Z,20.10
2018-06-01T06:13:08.622Z,20.50
2018-06-01T06:15:36.798Z,20.10
2018-06-01T06:18:04.238Z,19.90
2018-06-01T06:20:32.518Z,19.90
2018-06-01T06:25:28.047Z,20.50
2018-06-01T06:27:56.219Z,20.80
2018-06-01T06:30:24.273Z,21.30
2018-06-01T06:32:52.352Z,21.10
2018-06-01T06:35:20.382Z,21.00
2018-06-01T06:37:47.708Z,21.00
2018-06-01T06:40:15.733Z,20.90
2018-06-01T06:42:43.019Z,20.80
2018-06-01T06:45:11.033Z,21.30
2018-06-01T06:47:38.306Z,21.30
2018-06-01T06:52:33.853Z,21.50
2018-06-01T06:55:01.188Z,21.40
2018-06-01T06:57:29.215Z,21.20
2018-06-01T06:59:56.670Z,20.90
2018-06-01T07:02:23.923Z,21.40
2018-06-01T07:04:51.979Z,22.10
2018-06-01T07:12:16.669Z,23.10
2018-06-01T07:14:44.714Z,23.00
2018-06-01T07:19:40.543Z,24.10
2018-06-01T07:22:07.841Z,24.30
2018-06-01T07:27:03.334Z,24.40
2018-06-01T07:29:30.636Z,25.00
2018-06-01T07:31:58.104Z,25.00
2018-06-01T07:34:25.398Z,24.60
2018-06-01T07:39:20.876Z,23.80
2018-06-01T07:44:17.147Z,23.30
2018-06-01T07:46:44.451Z,23.50
2018-06-01T07:51:40.658Z,24.70
2018-06-01T07:54:07.975Z,24.20
2018-06-01T07:56:35.998Z,23.90
2018-06-01T08:01:31.527Z,23.80
2018-06-01T08:03:58.831Z,22.80
2018-06-01T08:06:26.843Z,22.60
2018-06-01T08:08:54.954Z,23.20
2018-06-01T08:11:22.999Z,24.00
2018-06-01T08:18:46.819Z,23.90
2018-06-01T08:21:14.831Z,23.40
2018-06-01T08:23:42.165Z,23.40
2018-06-01T08:26:09.426Z,24.00
2018-06-01T08:28:37.473Z,24.60
2018-06-01T08:31:04.936Z,24.20
2018-06-01T08:33:32.242Z,22.90
2018-06-01T08:35:59.546Z,22.90
2018-06-01T08:38:26.837Z,23.30
2018-06-01T08:43:23.075Z,23.40
2018-06-01T08:45:51.086Z,23.80
2018-06-01T08:50:47.338Z,23.60
2018-06-01T08:53:14.573Z,23.70
2018-06-01T08:55:42.594Z,24.00
2018-06-01T08:58:09.942Z,23.80
2018-06-01T09:00:38.022Z,23.90
2018-06-01T09:03:05.499Z,24.50
2018-06-01T09:05:32.794Z,24.50
2018-06-01T09:10:29.039Z,24.80
2018-06-01T09:15:24.512Z,25.90
2018-06-01T09:17:51.851Z,25.80
2018-06-01T09:22:47.438Z,25.00
2018-06-01T09:27:53.026Z,24.70
2018-06-01T09:30:20.386Z,25.00
2018-06-01T09:35:32.744Z,24.80
2018-06-01T09:38:07.870Z,24.60
2018-06-01T09:43:12.694Z,25.50
2018-06-01T09:45:42.053Z,25.10
2018-06-01T09:50:45.589Z,25.20
2018-06-01T09:53:13.799Z,25.10
2018-06-01T09:55:43.122Z,25.30
2018-06-01T09:58:12.987Z,25.20
2018-06-01T10:00:49.051Z,24.80
2018-06-01T10:03:19.994Z,25.50
2018-06-01T10:05:50.182Z,26.40
2018-06-01T10:08:18.417Z,26.40
2018-06-01T10:10:46.577Z,26.40
2018-06-01T10:13:15.714Z,26.10
2018-06-01T10:15:43.012Z,25.80
2018-06-01T10:18:12.947Z,26.80
2018-06-01T10:20:43.395Z,26.70
2018-06-01T10:23:13.155Z,27.10
2018-06-01T10:25:42.357Z,27.40
2018-06-01T10:28:14.962Z,27.00
2018-06-01T10:30:44.226Z,26.30
2018-06-01T10:33:13.422Z,25.30
2018-06-01T10:35:40.738Z,24.90
2018-06-01T10:38:10.855Z,24.90
2018-06-01T10:40:41.042Z,25.20
2018-06-01T10:43:15.240Z,25.20
2018-06-01T10:45:53.149Z,25.10
2018-06-01T10:48:21.278Z,25.20
2018-06-01T10:50:51.925Z,24.80
2018-06-01T10:53:23.477Z,25.10
2018-06-01T10:55:52.122Z,26.00
2018-06-01T10:58:28.827Z,26.80
2018-06-01T11:01:04.222Z,27.40
2018-06-01T11:03:36.819Z,27.30
2018-06-01T11:06:05.806Z,27.20
2018-06-01T11:08:36.009Z,27.30
2018-06-01T11:11:05.113Z,27.70
2018-06-01T11:13:38.981Z,27.80
2018-06-01T11:16:11.011Z,27.40
2018-06-01T11:18:44.655Z,27.50
2018-06-01T11:21:17.449Z,27.40
2018-06-01T11:26:28.728Z,26.80
2018-06-01T11:29:13.675Z,26.80
2018-06-01T11:31:42.932Z,26.20
2018-06-01T11:34:17.020Z,25.50
2018-06-01T11:36:49.566Z,25.20
2018-06-01T11:39:19.554Z,25.40
2018-06-01T11:41:53.196Z,25.50
2018-06-01T11:44:24.906Z,25.90
2018-06-01T11:46:59.076Z,26.10
2018-06-01T11:49:33.334Z,26.20
2018-06-01T11:52:06.287Z,26.40
2018-06-01T11:54:40.292Z,26.90
2018-06-01T11:57:11.552Z,27.80
2018-06-01T11:59:42.652Z,28.30
2018-06-01T12:02:13.443Z,28.50
2018-06-01T12:04:45.669Z,28.40
2018-06-01T12:07:19.120Z,28.20
2018-06-01T12:09:56.691Z,28.00
2018-06-01T12:12:34.352Z,28.50
2018-06-01T12:15:11.273Z,29.00
2018-06-01T12:17:51.097Z,29.40
2018-06-01T12:20:31.335Z,29.40
2018-06-01T12:23:01.456Z,29.00
2018-06-01T12:25:28.798Z,28.70
2018-06-01T12:27:56.118Z,27.90
2018-06-01T12:30:23.428Z,27.90
2018-06-01T12:32:50.698Z,28.60
2018-06-01T12:35:18.023Z,29.00
2018-06-01T12:37:45.723Z,29.20
2018-06-01T12:40:13.019Z,29.20
2018-06-01T12:42:40.323Z,28.90
2018-06-01T12:45:07.655Z,28.70
2018-06-01T12:47:35.773Z,28.70
2018-06-01T12:50:03.095Z,28.80
2018-06-01T12:52:30.581Z,29.30
2018-06-01T12:54:57.861Z,29.10
2018-06-01T12:57:26.064Z,29.40
2018-06-01T12:59:53.338Z,29.90
2018-06-01T13:02:20.698Z,30.00
2018-06-01T13:04:47.998Z,29.80
2018-06-01T13:07:15.337Z,29.50
2018-06-01T13:09:43.358Z,29.10
2018-06-01T13:12:10.653Z,28.80
2018-06-01T13:14:37.987Z,28.60
2018-06-01T13:17:05.305Z,28.90
2018-06-01T13:19:32.586Z,28.70
2018-06-01T13:21:59.846Z,28.70
2018-06-01T13:24:27.233Z,28.90
2018-06-01T13:26:55.540Z,28.70
2018-06-01T13:29:22.821Z,29.00
2018-06-01T13:31:50.087Z,28.70
2018-06-01T13:34:17.379Z,28.60
2018-06-01T13:36:46.665Z,29.20
2018-06-01T13:41:42.230Z,28.10
2018-06-01T13:44:09.577Z,28.00
2018-06-01T13:46:37.039Z,27.50
2018-06-01T13:49:04.542Z,28.50
2018-06-01T13:51:31.827Z,29.30
2018-06-01T13:53:59.930Z,29.40
2018-06-01T13:58:55.505Z,29.20
2018-06-01T14:01:22.942Z,28.70
2018-06-01T14:03:50.231Z,28.40
2018-06-01T14:06:17.531Z,28.20
2018-06-01T14:08:44.793Z,28.40
2018-06-01T14:11:12.893Z,28.20
2018-06-01T14:16:08.473Z,27.60
2018-06-01T14:18:35.787Z,27.40
2018-06-01T14:21:03.131Z,27.30
2018-06-01T14:25:59.382Z,27.00
2018-06-01T14:28:26.929Z,26.90
2018-06-01T14:35:51.378Z,27.00
2018-06-01T14:43:15.274Z,27.10
2018-06-01T14:48:10.815Z,26.90
2018-06-01T14:50:38.146Z,27.00
2018-06-01T14:53:06.391Z,27.00
2018-06-01T14:55:33.699Z,27.10
2018-06-01T14:58:01.741Z,27.20
2018-06-01T15:02:57.253Z,27.30
2018-06-01T15:07:52.810Z,27.20
2018-06-01T15:10:20.425Z,27.10
2018-06-01T15:12:47.897Z,27.00
2018-06-01T15:15:15.525Z,26.90
2018-06-01T15:17:43.665Z,26.90
2018-06-01T15:20:11.140Z,26.90
2018-06-01T15:22:38.415Z,27.00
2018-06-01T15:25:05.734Z,26.90
2018-06-01T15:27:33.030Z,26.90
2018-06-01T15:30:00.352Z,26.90
2018-06-01T15:32:27.639Z,26.80
2018-06-01T15:34:54.951Z,26.80
2018-06-01T15:37:22.243Z,26.80
2018-06-01T15:39:49.541Z,26.70
2018-06-01T15:42:17.641Z,26.70
2018-06-01T15:44:44.913Z,26.70
2018-06-01T15:47:12.210Z,26.80
2018-06-01T15:49:40.270Z,26.70
2018-06-01T15:52:07.562Z,26.70
2018-06-01T15:54:34.838Z,26.70
2018-06-01T15:57:02.198Z,26.60
2018-06-01T15:59:29.502Z,26.60
2018-06-01T16:01:57.519Z,26.50
2018-06-01T16:04:24.845Z,26.50
2018-06-01T16:06:52.144Z,26.40
2018-06-01T16:11:47.823Z,26.40
2018-06-01T16:14:15.881Z,26.40
2018-06-01T16:16:43.350Z,26.40
2018-06-01T16:19:10.659Z,26.30
2018-06-01T16:21:38.742Z,26.30
2018-06-01T16:26:34.274Z,26.30
2018-06-01T16:31:29.991Z,26.20
2018-06-01T16:33:57.222Z,26.10
2018-06-01T16:41:21.776Z,25.90
2018-06-01T16:43:49.069Z,26.00
2018-06-01T16:46:17.124Z,25.90
2018-06-01T16:48:44.498Z,25.90
2018-06-01T16:51:11.807Z,25.80
2018-06-01T16:53:39.190Z,26.00
2018-06-01T16:56:07.227Z,26.20
2018-06-01T16:58:34.601Z,26.40
2018-06-01T17:01:02.654Z,26.70
2018-06-01T17:05:58.180Z,27.00
2018-06-01T17:08:25.506Z,27.10
2018-06-01T17:10:54.051Z,27.20
2018-06-01T17:13:21.354Z,27.30
2018-06-01T17:18:16.902Z,27.30
2018-06-01T17:23:12.427Z,27.40
2018-06-01T17:25:40.513Z,27.40
2018-06-01T17:30:36.842Z,27.40
2018-06-01T17:35:32.413Z,27.30
2018-06-01T17:38:00.533Z,27.30
2018-06-01T17:40:27.843Z,27.30
2018-06-01T17:42:55.918Z,27.40
2018-06-01T17:45:23.286Z,27.40
2018-06-01T17:47:50.582Z,27.30
2018-06-01T17:55:14.534Z,27.30
2018-06-01T17:57:41.826Z,27.30
2018-06-01T18:00:09.887Z,27.30
2018-06-01T18:05:05.444Z,27.20
2018-06-01T18:12:29.283Z,27.20
2018-06-01T18:14:56.633Z,27.20
2018-06-01T18:17:23.938Z,27.30
2018-06-01T18:19:51.259Z,27.30
2018-06-01T18:22:18.526Z,27.30
2018-06-01T18:24:46.224Z,27.30
2018-06-01T18:27:14.255Z,27.30
2018-06-01T18:29:41.617Z,27.30
2018-06-01T18:32:08.965Z,27.30
2018-06-01T18:34:36.291Z,27.30
2018-06-01T18:37:03.746Z,27.30
2018-06-01T18:39:31.034Z,27.30
2018-06-01T18:41:58.413Z,27.30
2018-06-01T18:44:26.459Z,27.30
2018-06-01T18:49:22.223Z,27.30
2018-06-01T18:54:18.646Z,27.20
2018-06-01T18:56:45.943Z,27.10
2018-06-01T18:59:13.963Z,26.70
2018-06-01T19:01:41.263Z,26.70
2018-06-01T19:04:08.825Z,26.80
2018-06-01T19:06:36.847Z,26.70
2018-06-01T19:09:05.208Z,26.60
2018-06-01T19:11:32.546Z,26.50
2018-06-01T19:16:28.150Z,26.00
2018-06-01T19:18:56.199Z,26.10
2018-06-01T19:23:51.743Z,26.20
2018-06-01T19:28:48.034Z,25.80
2018-06-01T19:31:16.226Z,25.60
2018-06-01T19:33:43.570Z,25.20
2018-06-01T19:36:10.999Z,24.60
2018-06-01T19:38:38.370Z,24.20
2018-06-01T19:41:05.682Z,24.10
2018-06-01T19:43:33.738Z,23.90
2018-06-01T19:48:29.263Z,23.60
2018-06-01T19:53:24.770Z,23.00
2018-06-01T19:58:20.365Z,23.00
2018-06-01T20:03:15.997Z,22.70
2018-06-01T20:05:43.288Z,22.50
2018-06-01T20:08:10.599Z,22.60
2018-06-01T20:10:37.923Z,22.80
2018-06-01T20:13:06.010Z,22.80
2018-06-01T20:15:33.302Z,22.70
2018-06-01T20:20:28.815Z,22.70
2018-06-01T20:22:56.821Z,23.30
2018-06-01T20:25:24.155Z,23.90
2018-06-01T20:30:19.663Z,23.10
2018-06-01T20:32:46.966Z,23.30
2018-06-01T20:35:14.287Z,23.20
2018-06-01T20:37:42.308Z,23.40
2018-06-01T20:40:10.344Z,23.50
2018-06-01T20:42:37.627Z,23.80
2018-06-01T20:45:05.752Z,24.20
2018-06-01T20:47:33.048Z,24.50
2018-06-01T20:50:01.144Z,24.80
2018-06-01T20:54:56.645Z,25.20
2018-06-01T20:57:24.691Z,25.30
2018-06-01T20:59:51.963Z,25.40
2018-06-01T21:02:19.311Z,25.50
2018-06-01T21:04:47.342Z,25.50
2018-06-01T21:07:14.678Z,25.50
2018-06-01T21:09:41.961Z,25.50
2018-06-01T21:12:09.262Z,25.60
2018-06-01T21:14:37.356Z,25.50
2018-06-01T21:17:04.725Z,25.50
2018-06-01T21:22:00.329Z,24.90
2018-06-01T21:24:27.622Z,24.70
2018-06-01T21:26:55.052Z,24.70
2018-06-01T21:29:22.419Z,24.70
2018-06-01T21:31:49.781Z,24.80
2018-06-01T21:36:45.807Z,24.50
2018-06-01T21:39:13.265Z,24.60
2018-06-01T21:41:40.572Z,24.80
2018-06-01T21:44:08.618Z,25.00
2018-06-01T21:46:36.745Z,25.10
2018-06-01T21:51:33.036Z,25.20
2018-06-01T21:54:01.239Z,25.20
2018-06-01T21:56:28.830Z,25.30
2018-06-01T21:58:56.026Z,25.30
2018-06-01T22:01:24.070Z,25.30
2018-06-01T22:03:52.101Z,25.20
2018-06-01T22:06:19.398Z,25.20
2018-06-01T22:08:46.837Z,25.20
2018-06-01T22:11:14.432Z,24.40
2018-06-01T22:13:41.778Z,24.20
2018-06-01T22:18:38.086Z,24.80
2018-06-01T22:21:05.347Z,25.00
2018-06-01T22:23:32.650Z,25.10
2018-06-01T22:28:28.223Z,25.00
2018-06-01T22:30:55.510Z,25.10
2018-06-01T22:33:22.797Z,25.10
2018-06-01T22:35:50.862Z,25.10
2018-06-01T22:40:46.399Z,25.20
2018-06-01T22:43:14.494Z,25.20
2018-06-01T22:45:41.801Z,25.20
2018-06-01T22:50:37.574Z,25.20
2018-06-01T22:53:05.650Z,25.10
2018-06-01T22:55:32.995Z,25.20
2018-06-01T22:58:00.282Z,25.10
2018-06-01T23:00:29.299Z,25.10
2018-06-01T23:02:56.718Z,25.00
2018-06-01T23:05:23.979Z,25.00
2018-06-01T23:07:51.285Z,25.10
2018-06-01T23:10:18.568Z,25.10
2018-06-01T23:12:46.653Z,25.10
2018-06-01T23:15:14.774Z,25.10
2018-06-01T23:20:11.057Z,25.00
2018-06-01T23:22:38.420Z,25.00
2018-06-01T23:27:34.027Z,24.80
2018-06-01T23:30:02.091Z,24.90
2018-06-01T23:34:58.495Z,24.90
2018-06-01T23:37:25.827Z,24.90
2018-06-01T23:39:53.070Z,25.00
2018-06-01T23:42:20.444Z,25.00
2018-06-01T23:44:47.718Z,24.80
2018-06-01T23:47:15.003Z,24.70
2018-06-01T23:49:43.050Z,24.40
2018-06-01T23:54:39.332Z,24.30
2018-06-01T23:57:06.655Z,24.50
